createdAt,value
2019-03-09T00:00:49.141Z,97258.10
2019-03-09T00:04:53.580Z,97256.45
2019-03-09T00:08:56.144Z,97266.80
2019-03-09T00:12:58.663Z,97265.31
2019-03-09T00:17:01.216Z,97252.15
2019-03-09T00:21:03.708Z,97247.69
2019-03-09T00:25:16.772Z,97244.88
2019-03-09T00:29:26.540Z,97246.81
2019-03-09T00:33:29.052Z,97244.81
2019-03-09T00:37:31.423Z,97250.90
2019-03-09T00:41:34.936Z,97261.02
2019-03-09T00:45:37.711Z,97264.65
2019-03-09T00:49:41.643Z,97271.22
2019-03-09T00:53:44.368Z,97275.13
2019-03-09T00:57:47.372Z,97275.13
2019-03-09T01:01:51.188Z,97277.88
2019-03-09T01:05:55.511Z,97285.93
2019-03-09T01:09:58.027Z,97291.19
2019-03-09T01:14:00.556Z,97308.38
2019-03-09T01:18:03.051Z,97320.20
2019-03-09T01:22:05.659Z,97344.48
2019-03-09T01:26:08.332Z,97361.45
2019-03-09T01:30:15.074Z,97388.25
2019-03-09T01:34:17.496Z,97403.58
2019-03-09T01:38:21.351Z,97423.69
2019-03-09T01:42:23.963Z,97454.30
2019-03-09T01:46:26.639Z,97467.27
2019-03-09T01:50:29.441Z,97480.04
2019-03-09T01:54:32.159Z,97498.98
2019-03-09T01:58:34.584Z,97504.94
2019-03-09T02:02:37.087Z,97534.82
2019-03-09T02:06:44.651Z,97543.50
2019-03-09T02:10:47.470Z,97562.46
2019-03-09T02:14:50.076Z,97586.45
2019-03-09T02:18:52.821Z,97588.25
2019-03-09T02:22:55.353Z,97607.14
2019-03-09T02:26:57.881Z,97613.52
2019-03-09T02:31:00.285Z,97632.23
2019-03-09T02:35:03.452Z,97646.72
2019-03-09T02:39:30.724Z,97648.38
2019-03-09T02:43:33.212Z,97667.80
2019-03-09T02:47:35.607Z,97682.84
2019-03-09T02:51:38.225Z,97691.70
2019-03-09T02:55:40.609Z,97691.59
2019-03-09T02:59:43.280Z,97716.82
2019-03-09T03:03:45.791Z,97721.83
2019-03-09T03:07:50.085Z,97753.05
2019-03-09T03:11:52.496Z,97759.58
2019-03-09T03:15:56.269Z,97771.86
2019-03-09T03:19:58.642Z,97794.56
2019-03-09T03:24:01.489Z,97791.36
2019-03-09T03:28:04.292Z,97820.20
2019-03-09T03:32:06.785Z,97823.06
2019-03-09T03:36:10.454Z,97829.84
2019-03-09T03:40:13.505Z,97836.03
2019-03-09T03:44:16.252Z,97857.50
2019-03-09T03:48:18.744Z,97868.56
2019-03-09T03:52:21.165Z,97891.96
2019-03-09T03:56:23.864Z,97892.67
2019-03-09T04:00:26.250Z,97901.81
2019-03-09T04:04:28.844Z,97917.11
2019-03-09T04:08:31.618Z,97922.94
2019-03-09T04:12:35.522Z,97951.30
2019-03-09T04:16:37.973Z,97978.72
2019-03-09T04:20:40.545Z,97980.97
2019-03-09T04:24:43.122Z,97977.55
2019-03-09T04:28:46.388Z,97993.92
2019-03-09T04:32:49.199Z,98006.61
2019-03-09T04:37:01.554Z,98016.72
2019-03-09T04:41:04.065Z,98040.33
2019-03-09T04:45:08.107Z,98036.64
2019-03-09T04:49:10.511Z,98046.15
2019-03-09T04:53:13.029Z,98056.70
2019-03-09T04:57:15.480Z,98066.77
2019-03-09T05:01:18.034Z,98061.06
2019-03-09T05:05:20.555Z,98069.50
2019-03-09T05:09:43.170Z,98070.58
2019-03-09T05:14:12.814Z,98087.42
2019-03-09T05:18:15.293Z,98096.70
2019-03-09T05:22:21.450Z,98117.97
2019-03-09T05:26:25.207Z,98130.42
2019-03-09T05:30:40.616Z,98131.13
2019-03-09T05:34:43.303Z,98136.13
2019-03-09T05:38:47.543Z,98151.01
2019-03-09T05:42:50.396Z,98158.15
2019-03-09T05:46:52.831Z,98153.63
2019-03-09T05:50:56.524Z,98165.63
2019-03-09T05:54:59.619Z,98179.53
2019-03-09T05:59:02.295Z,98189.15
2019-03-09T06:03:04.904Z,98185.97
2019-03-09T06:07:07.804Z,98193.22
2019-03-09T06:11:10.336Z,98192.98
2019-03-09T06:15:13.032Z,98202.61
2019-03-09T06:19:15.458Z,98203.59
2019-03-09T06:23:17.939Z,98210.00
2019-03-09T06:27:20.346Z,98210.36
2019-03-09T06:31:23.317Z,98213.34
2019-03-09T06:35:25.772Z,98218.36
2019-03-09T06:39:34.201Z,98221.82
2019-03-09T06:43:36.660Z,98221.36
2019-03-09T06:47:39.286Z,98227.30
2019-03-09T06:51:41.796Z,98228.76
2019-03-09T06:55:44.295Z,98240.80
2019-03-09T06:59:46.680Z,98236.44
2019-03-09T07:03:49.174Z,98243.11
2019-03-09T07:07:51.954Z,98241.79
2019-03-09T07:11:54.479Z,98251.89
2019-03-09T07:15:56.894Z,98260.68
2019-03-09T07:19:59.364Z,98251.27
2019-03-09T07:24:01.758Z,98265.94
2019-03-09T07:28:08.903Z,98267.67
2019-03-09T07:32:11.461Z,98279.89
2019-03-09T07:36:14.055Z,98278.20
2019-03-09T07:40:16.556Z,98283.09
2019-03-09T07:44:19.057Z,98284.02
2019-03-09T07:48:21.469Z,98292.78
2019-03-09T07:52:35.452Z,98299.09
2019-03-09T07:56:38.011Z,98303.89
2019-03-09T08:00:40.465Z,98321.53
2019-03-09T08:04:43.025Z,98322.22
2019-03-09T08:08:46.922Z,98332.53
2019-03-09T08:12:49.626Z,98343.84
2019-03-09T08:16:52.202Z,98350.92
2019-03-09T08:20:54.713Z,98356.59
2019-03-09T08:24:57.262Z,98356.36
2019-03-09T08:29:16.166Z,98359.17
2019-03-09T08:33:18.842Z,98366.31
2019-03-09T08:37:21.459Z,98385.91
2019-03-09T08:41:25.733Z,98378.98
2019-03-09T08:45:28.382Z,98384.48
2019-03-09T08:49:30.900Z,98392.35
2019-03-09T08:53:33.541Z,98404.31
2019-03-09T08:57:36.251Z,98405.20
2019-03-09T09:01:38.757Z,98414.48
2019-03-09T09:05:41.441Z,98424.09
2019-03-09T09:09:45.870Z,98428.64
2019-03-09T09:13:48.517Z,98434.08
2019-03-09T09:17:51.114Z,98432.38
2019-03-09T09:21:53.794Z,98444.88
2019-03-09T09:25:56.401Z,98451.98
2019-03-09T09:29:59.143Z,98454.80
2019-03-09T09:34:01.758Z,98464.79
2019-03-09T09:38:04.538Z,98466.84
2019-03-09T09:42:07.464Z,98472.98
2019-03-09T09:46:10.250Z,98478.27
2019-03-09T09:50:13.069Z,98477.84
2019-03-09T09:54:15.796Z,98478.20
2019-03-09T09:58:18.437Z,98467.67
2019-03-09T10:02:21.013Z,98472.91
2019-03-09T10:06:23.838Z,98492.71
2019-03-09T10:10:26.797Z,98496.36
2019-03-09T10:14:29.607Z,98507.89
2019-03-09T10:18:32.497Z,98505.28
2019-03-09T10:22:35.257Z,98526.80
2019-03-09T10:26:37.967Z,98526.15
2019-03-09T10:30:40.590Z,98517.58
2019-03-09T10:34:43.505Z,98525.12
2019-03-09T10:38:46.195Z,98524.89
2019-03-09T10:42:49.145Z,98524.27
2019-03-09T10:46:51.783Z,98527.96
2019-03-09T10:50:54.421Z,98548.11
2019-03-09T10:54:56.946Z,98550.59
2019-03-09T10:58:59.630Z,98550.29
2019-03-09T11:03:02.251Z,98539.30
2019-03-09T11:07:04.949Z,98534.62
2019-03-09T11:11:09.129Z,98530.67
2019-03-09T11:15:11.954Z,98532.32
2019-03-09T11:19:14.511Z,98546.83
2019-03-09T11:23:17.077Z,98535.95
2019-03-09T11:27:19.442Z,98545.16
2019-03-09T11:31:21.845Z,98534.33
2019-03-09T11:35:24.147Z,98527.63
2019-03-09T11:39:27.817Z,98533.05
2019-03-09T11:43:30.127Z,98544.27
2019-03-09T11:47:32.497Z,98543.11
2019-03-09T11:51:34.842Z,98540.31
2019-03-09T11:55:37.468Z,98541.25
2019-03-09T11:59:39.803Z,98540.54
2019-03-09T12:03:42.283Z,98540.47
2019-03-09T12:07:44.602Z,98541.95
2019-03-09T12:11:59.727Z,98552.89
2019-03-09T12:16:02.075Z,98548.55
2019-03-09T12:20:04.884Z,98549.64
2019-03-09T12:24:16.151Z,98557.09
2019-03-09T12:28:12.988Z,98552.19
2019-03-09T12:32:15.549Z,98554.15
2019-03-09T12:36:18.209Z,98555.90
2019-03-09T12:40:21.256Z,98554.58
2019-03-09T12:44:24.562Z,98559.05
2019-03-09T12:48:27.149Z,98552.31
2019-03-09T12:52:32.014Z,98547.89
2019-03-09T12:56:37.166Z,98547.53
2019-03-09T13:00:41.855Z,98543.53
2019-03-09T13:04:47.286Z,98538.44
2019-03-09T13:08:50.487Z,98532.95
2019-03-09T13:12:53.969Z,98536.09
2019-03-09T13:17:00.143Z,98534.95
2019-03-09T13:21:04.578Z,98519.11
2019-03-09T13:25:09.822Z,98528.62
2019-03-09T13:29:16.995Z,98527.27
2019-03-09T13:33:25.634Z,98530.67
2019-03-09T13:37:34.300Z,98532.16
2019-03-09T13:41:40.773Z,98513.42
2019-03-09T13:45:49.567Z,98502.95
2019-03-09T13:49:52.930Z,98510.77
2019-03-09T13:53:55.446Z,98506.04
2019-03-09T13:57:57.954Z,98500.37
2019-03-09T14:02:00.231Z,98501.11
2019-03-09T14:06:09.421Z,98500.85
2019-03-09T14:10:13.748Z,98490.16
2019-03-09T14:14:16.739Z,98493.96
2019-03-09T14:18:19.128Z,98494.42
2019-03-09T14:22:21.513Z,98492.52
2019-03-09T14:26:23.855Z,98490.22
2019-03-09T14:30:29.652Z,98483.64
2019-03-09T14:34:33.119Z,98485.20
2019-03-09T14:38:41.363Z,98479.44
2019-03-09T14:42:44.031Z,98485.95
2019-03-09T14:46:46.429Z,98474.33
2019-03-09T14:50:50.283Z,98473.96
2019-03-09T14:54:53.044Z,98477.58
2019-03-09T14:58:55.810Z,98472.85
2019-03-09T15:02:58.355Z,98472.05
2019-03-09T15:07:06.905Z,98464.35
2019-03-09T15:11:09.642Z,98458.52
2019-03-09T15:15:13.345Z,98457.20
2019-03-09T15:19:15.970Z,98445.92
2019-03-09T15:23:18.494Z,98450.12
2019-03-09T15:27:20.894Z,98447.42
2019-03-09T15:31:23.226Z,98447.90
2019-03-09T15:35:25.631Z,98444.94
2019-03-09T15:39:28.423Z,98433.73
2019-03-09T15:43:31.610Z,98434.83
2019-03-09T15:47:34.180Z,98434.25
2019-03-09T15:51:36.904Z,98435.34
2019-03-09T15:55:39.549Z,98433.70
2019-03-09T15:59:42.189Z,98425.23
2019-03-09T16:03:44.878Z,98424.42
2019-03-09T16:07:47.642Z,98419.76
2019-03-09T16:11:50.302Z,98422.75
2019-03-09T16:15:53.157Z,98418.70
2019-03-09T16:19:55.891Z,98413.36
2019-03-09T16:23:58.626Z,98415.41
2019-03-09T16:28:01.519Z,98409.95
2019-03-09T16:32:04.630Z,98414.14
2019-03-09T16:36:07.134Z,98412.62
2019-03-09T16:40:10.181Z,98405.95
2019-03-09T16:44:12.721Z,98396.31
2019-03-09T16:48:15.298Z,98386.77
2019-03-09T16:52:17.924Z,98384.05
2019-03-09T16:56:20.821Z,98381.19
2019-03-09T17:00:24.170Z,98381.66
2019-03-09T17:04:27.429Z,98361.25
2019-03-09T17:08:30.141Z,98361.50
2019-03-09T17:12:32.935Z,98363.15
2019-03-09T17:16:35.375Z,98363.52
2019-03-09T17:20:38.634Z,98358.62
2019-03-09T17:24:41.966Z,98359.80
2019-03-09T17:28:44.815Z,98355.39
2019-03-09T17:32:47.855Z,98350.51
2019-03-09T17:36:51.740Z,98347.88
2019-03-09T17:40:56.144Z,98334.52
2019-03-09T17:45:00.702Z,98337.14
2019-03-09T17:49:03.168Z,98326.28
2019-03-09T17:53:07.049Z,98324.34
2019-03-09T17:57:10.329Z,98318.63
2019-03-09T18:01:13.348Z,98313.85
2019-03-09T18:05:16.594Z,98310.47
2019-03-09T18:09:19.974Z,98304.02
2019-03-09T18:13:23.012Z,98299.56
2019-03-09T18:17:25.764Z,98293.22
2019-03-09T18:21:28.510Z,98289.97
2019-03-09T18:25:31.324Z,98279.95
2019-03-09T18:29:33.955Z,98267.14
2019-03-09T18:33:36.605Z,98265.42
2019-03-09T18:37:39.225Z,98255.70
2019-03-09T18:41:41.975Z,98248.75
2019-03-09T18:45:44.855Z,98243.34
2019-03-09T18:49:47.627Z,98236.52
2019-03-09T18:53:50.232Z,98228.04
2019-03-09T18:57:53.232Z,98223.20
2019-03-09T19:01:57.487Z,98213.38
2019-03-09T19:06:00.193Z,98211.11
2019-03-09T19:10:02.740Z,98212.78
2019-03-09T19:14:05.533Z,98208.91
2019-03-09T19:18:08.223Z,98209.27
2019-03-09T19:22:10.732Z,98194.00
2019-03-09T19:26:13.177Z,98187.64
2019-03-09T19:30:17.003Z,98176.17
2019-03-09T19:34:19.926Z,98173.89
2019-03-09T19:38:22.670Z,98168.69
2019-03-09T19:42:25.291Z,98161.16
2019-03-09T19:46:28.272Z,98158.14
2019-03-09T19:50:31.041Z,98154.67
2019-03-09T19:54:33.892Z,98151.56
2019-03-09T19:58:36.386Z,98149.27
2019-03-09T20:02:42.111Z,98139.23
2019-03-09T20:06:44.610Z,98128.39
2019-03-09T20:10:47.002Z,98125.28
2019-03-09T20:14:49.456Z,98112.46
2019-03-09T20:18:52.127Z,98109.15
2019-03-09T20:22:54.541Z,98105.33
2019-03-09T20:26:57.221Z,98104.84
2019-03-09T20:30:59.944Z,98098.99
2019-03-09T20:35:02.832Z,98099.59
2019-03-09T20:39:05.928Z,98084.94
2019-03-09T20:43:10.233Z,98087.00
2019-03-09T20:47:14.470Z,98082.73
2019-03-09T20:51:17.164Z,98083.54
2019-03-09T20:55:19.762Z,98077.80
2019-03-09T20:59:22.130Z,98070.55
2019-03-09T21:03:24.540Z,98063.78
2019-03-09T21:07:27.378Z,98056.98
2019-03-09T21:11:29.729Z,98051.04
2019-03-09T21:15:32.336Z,98044.39
2019-03-09T21:19:34.937Z,98042.87
2019-03-09T21:23:38.269Z,98040.05
2019-03-09T21:27:40.604Z,98037.85
2019-03-09T21:31:43.031Z,98027.62
2019-03-09T21:35:45.519Z,98022.36
2019-03-09T21:39:48.002Z,98023.12
2019-03-09T21:43:50.347Z,98016.20
2019-03-09T21:47:52.921Z,98008.11
2019-03-09T21:51:55.328Z,98002.86
2019-03-09T21:55:57.973Z,98007.43
2019-03-09T22:00:00.375Z,98001.47
2019-03-09T22:04:04.426Z,97996.84
2019-03-09T22:08:06.766Z,97996.97
2019-03-09T22:12:09.411Z,97987.25
2019-03-09T22:16:12.203Z,97981.91
2019-03-09T22:20:15.147Z,97973.48
2019-03-09T22:24:17.810Z,97971.48
2019-03-09T22:28:21.727Z,97967.19
2019-03-09T22:32:24.286Z,97957.31
2019-03-09T22:36:27.033Z,97948.60
2019-03-09T22:40:29.763Z,97947.77
2019-03-09T22:44:32.415Z,97939.69
2019-03-09T22:48:35.525Z,97932.30
2019-03-09T22:52:38.099Z,97928.00
2019-03-09T22:56:40.795Z,97921.59
2019-03-09T23:00:44.097Z,97925.05
2019-03-09T23:04:48.198Z,97920.95
2019-03-09T23:08:50.965Z,97908.30
2019-03-09T23:12:53.675Z,97900.30
2019-03-09T23:16:57.597Z,97895.25
2019-03-09T23:21:00.333Z,97892.47
2019-03-09T23:25:02.949Z,97889.37
2019-03-09T23:29:05.820Z,97885.78
2019-03-09T23:33:09.964Z,97880.88
2019-03-09T23:37:12.272Z,97873.01
2019-03-09T23:41:15.075Z,97869.39
2019-03-09T23:45:18.570Z,97861.52
2019-03-09T23:49:21.540Z,97858.77
2019-03-09T23:53:23.846Z,97851.84
2019-03-09T23:57:27.708Z,97850.20
